createdAt,value
2018-07-05T11:31:28.158Z,25.28
2018-07-05T11:32:26.936Z,25.31
2018-07-05T11:33:27.139Z,25.24
2018-07-05T11:34:26.601Z,25.28
2018-07-05T11:34:59.934Z,25.32
2018-07-05T11:35:59.978Z,25.35
2018-07-05T11:36:59.717Z,25.31
2018-07-05T11:37:59.941Z,25.31
2018-07-05T11:39:00.077Z,25.24
2018-07-05T11:39:59.693Z,25.28
2018-07-05T11:40:59.667Z,25.25
2018-07-05T11:41:59.741Z,25.24
2018-07-05T11:42:59.621Z,25.25
2018-07-05T11:43:59.778Z,25.17
2018-07-05T11:44:59.209Z,25.24
2018-07-05T11:45:59.316Z,25.09
2018-07-05T11:46:58.936Z,25.10
2018-07-05T11:47:59.456Z,25.15
2018-07-05T11:48:58.917Z,25.15
2018-07-05T11:49:58.695Z,25.09
2018-07-05T11:50:58.961Z,25.07
2018-07-05T11:51:58.797Z,25.12
2018-07-05T11:52:58.899Z,25.06
2018-07-05T11:53:58.696Z,25.05
2018-07-05T11:54:58.538Z,25.02
2018-07-05T11:55:58.639Z,25.06
2018-07-05T11:56:58.522Z,24.97
2018-07-05T11:57:58.238Z,24.98
2018-07-05T11:58:58.458Z,24.91
2018-07-05T11:59:59.775Z,24.90
2018-07-05T12:00:59.279Z,24.94
2018-07-05T12:01:57.982Z,24.97
2018-07-05T12:02:58.100Z,24.95
2018-07-05T12:03:57.863Z,24.87
2018-07-05T12:04:57.643Z,24.85
2018-07-05T12:05:57.914Z,24.87
2018-07-05T12:06:57.679Z,24.71
2018-07-05T12:07:57.480Z,24.69
2018-07-05T12:08:57.378Z,24.71
2018-07-05T12:09:57.638Z,24.82
2018-07-05T12:10:57.644Z,24.88
2018-07-05T12:11:57.013Z,24.85
2018-07-05T12:12:57.094Z,24.95
2018-07-05T12:13:56.862Z,25.02
2018-07-05T12:14:56.898Z,25.01
2018-07-05T12:15:56.820Z,25.05
2018-07-05T12:16:56.986Z,25.10
2018-07-05T12:17:56.958Z,25.17
2018-07-05T12:18:56.601Z,25.05
2018-07-05T12:19:56.802Z,25.15
2018-07-05T12:20:56.319Z,25.01
2018-07-05T12:21:57.081Z,25.06
2018-07-05T12:22:56.437Z,25.07
2018-07-05T12:23:56.114Z,25.02
2018-07-05T12:24:56.099Z,24.94
2018-07-05T12:25:56.055Z,24.87
2018-07-05T12:26:56.177Z,24.91
2018-07-05T12:27:55.858Z,24.77
2018-07-05T12:28:55.695Z,24.82
2018-07-05T12:29:55.921Z,24.87
2018-07-05T12:30:55.494Z,24.67
2018-07-05T12:31:55.813Z,24.41
2018-07-05T12:32:55.380Z,24.41
2018-07-05T12:33:55.374Z,24.31
2018-07-05T12:34:55.363Z,24.34
2018-07-05T12:35:55.082Z,24.41
2018-07-05T12:36:55.277Z,24.31
2018-07-05T12:37:55.336Z,24.34
2018-07-05T12:38:55.497Z,24.35
2018-07-05T12:39:54.897Z,24.22
2018-07-05T12:40:54.897Z,24.26
2018-07-05T12:41:54.921Z,24.37
2018-07-05T12:42:54.861Z,24.31
2018-07-05T12:43:55.256Z,24.20
2018-07-05T12:44:54.581Z,24.22
2018-07-05T12:45:54.282Z,24.16
2018-07-05T12:46:54.372Z,24.04
2018-07-05T12:47:55.943Z,24.17
2018-07-05T12:48:54.099Z,24.16
2018-07-05T12:49:54.068Z,24.26
2018-07-05T12:50:54.177Z,24.34
2018-07-05T12:51:54.179Z,24.50
2018-07-05T12:52:54.003Z,24.50
2018-07-05T12:53:53.178Z,24.68
2018-07-05T12:54:53.867Z,24.77
2018-07-05T12:55:54.017Z,24.91
2018-07-05T12:56:53.515Z,24.87
2018-07-05T12:57:53.357Z,24.91
2018-07-05T12:58:53.562Z,24.97
2018-07-05T12:59:53.379Z,25.01
2018-07-05T13:00:53.474Z,25.02
2018-07-05T13:01:53.438Z,24.97
2018-07-05T13:02:53.320Z,25.07
2018-07-05T13:03:53.291Z,25.00
2018-07-05T13:04:53.061Z,25.02
2018-07-05T13:05:52.864Z,24.98
2018-07-05T13:06:53.022Z,25.01
2018-07-05T13:07:52.615Z,25.01
2018-07-05T13:08:52.721Z,25.01
2018-07-05T13:09:52.476Z,25.02
2018-07-05T13:10:52.378Z,25.06
2018-07-05T13:11:52.253Z,24.98
2018-07-05T13:12:52.627Z,24.97
2018-07-05T13:13:52.260Z,25.05
2018-07-05T13:14:52.211Z,25.05
2018-07-05T13:15:51.921Z,24.91
2018-07-05T13:16:52.125Z,24.91
2018-07-05T13:17:51.819Z,24.83
2018-07-05T13:18:51.844Z,24.80
2018-07-05T13:19:51.613Z,24.80
2018-07-05T13:20:51.558Z,24.79
2018-07-05T13:21:51.555Z,24.80
2018-07-05T13:22:51.845Z,24.68
2018-07-05T13:23:51.961Z,24.76
2018-07-05T13:24:51.454Z,24.80
2018-07-05T13:25:51.594Z,24.82
2018-07-05T13:26:51.034Z,24.76
2018-07-05T13:27:51.141Z,24.90
2018-07-05T13:28:51.226Z,24.76
2018-07-05T13:29:51.385Z,24.80
2018-07-05T13:30:51.681Z,24.98
2018-07-05T13:31:51.638Z,24.91
2018-07-05T13:32:51.759Z,24.88
2018-07-05T13:33:50.820Z,24.95
2018-07-05T13:34:50.739Z,24.94
2018-07-05T13:35:50.939Z,24.98
2018-07-05T13:38:11.219Z,25.05
